Terminal Aerodrome Forecast
Issued by NWS Blacksburg, VA

Current Version | Previous Version | Text Only | Print | Product List | Glossary Off
Versions: 1 2 3 4 5 6 7 8 9 10 11 12 13 14 15 16 17 18 19 20 21 22 23 24 25 26 27 28 29 30 31 32 33 34 35 36 37 38 39 40 41 42

956
FTUS41 KRNK 251727
TAFBLF
TAF
KBLF 251727Z 2518/2618 26015G25KT P6SM BKN035
     FM260200 30015G25KT P6SM OVC025
     FM260800 29012KT P6SM OVC035
     FM261300 28010KT P6SM SKC=

USA.gov is the U.S. government's official web portal to all federal, state and local government web resources and services.